sensor_id;sensor_type;location;lat;lon;timestamp;pressure;altitude;pressure_sealevel;temperature;humidity
10840;BME280;5473;42.706;23.328;2023-01-25T00:00:27;62104.00;;;-142.93;100.00
10840;BME280;5473;42.706;23.328;2023-01-25T00:02:55;62104.00;;;-142.93;100.00
10840;BME280;5473;42.706;23.328;2023-01-25T00:05:22;62104.00;;;-142.93;100.00
10840;BME280;5473;42.706;23.328;2023-01-25T00:07:49;62104.00;;;-142.93;100.00
10840;BME280;5473;42.706;23.328;2023-01-25T00:10:15;62104.00;;;-142.93;100.00
10840;BME280;5473;42.706;23.328;2023-01-25T00:12:42;62104.00;;;-142.93;100.00
10840;BME280;5473;42.706;23.328;2023-01-25T00:15:10;62104.00;;;-142.93;100.00
10840;BME280;5473;42.706;23.328;2023-01-25T00:17:36;62104.00;;;-142.93;100.00
10840;BME280;5473;42.706;23.328;2023-01-25T00:20:06;62104.00;;;-142.93;100.00
10840;BME280;5473;42.706;23.328;2023-01-25T00:22:33;62104.00;;;-142.93;100.00
10840;BME280;5473;42.706;23.328;2023-01-25T00:24:59;62104.00;;;-142.93;100.00
10840;BME280;5473;42.706;23.328;2023-01-25T00:27:26;62104.00;;;-142.93;100.00
10840;BME280;5473;42.706;23.328;2023-01-25T00:29:53;62104.00;;;-142.93;100.00
10840;BME280;5473;42.706;23.328;2023-01-25T00:32:41;62104.00;;;-142.93;100.00
10840;BME280;5473;42.706;23.328;2023-01-25T00:35:14;62104.00;;;-142.93;100.00
10840;BME280;5473;42.706;23.328;2023-01-25T00:37:42;62104.00;;;-142.93;100.00
10840;BME280;5473;42.706;23.328;2023-01-25T00:40:10;62104.00;;;-142.93;100.00
10840;BME280;5473;42.706;23.328;2023-01-25T00:42:38;62104.00;;;-142.93;100.00
10840;BME280;5473;42.706;23.328;2023-01-25T00:45:06;62104.00;;;-142.93;100.00
10840;BME280;5473;42.706;23.328;2023-01-25T00:47:33;62104.00;;;-142.93;100.00
10840;BME280;5473;42.706;23.328;2023-01-25T00:50:00;62104.00;;;-142.93;100.00
10840;BME280;5473;42.706;23.328;2023-01-25T00:52:29;62104.00;;;-142.93;100.00
10840;BME280;5473;42.706;23.328;2023-01-25T00:54:55;62104.00;;;-142.93;100.00
10840;BME280;5473;42.706;23.328;2023-01-25T00:57:22;62104.00;;;-142.93;100.00
10840;BME280;5473;42.706;23.328;2023-01-25T00:59:49;62104.00;;;-142.93;100.00
10840;BME280;5473;42.706;23.328;2023-01-25T01:02:16;62104.00;;;-142.93;100.00
10840;BME280;5473;42.706;23.328;2023-01-25T01:04:43;62104.00;;;-142.93;100.00
10840;BME280;5473;42.706;23.328;2023-01-25T01:07:12;62104.00;;;-142.93;100.00
10840;BME280;5473;42.706;23.328;2023-01-25T01:09:40;62104.00;;;-142.93;100.00
10840;BME280;5473;42.706;23.328;2023-01-25T01:12:07;62104.00;;;-142.93;100.00
10840;BME280;5473;42.706;23.328;2023-01-25T01:14:34;62104.00;;;-142.93;100.00
10840;BME280;5473;42.706;23.328;2023-01-25T01:17:01;62104.00;;;-142.93;100.00
10840;BME280;5473;42.706;23.328;2023-01-25T01:19:28;62104.00;;;-142.93;100.00
10840;BME280;5473;42.706;23.328;2023-01-25T01:21:55;62104.00;;;-142.93;100.00
10840;BME280;5473;42.706;23.328;2023-01-25T01:24:22;62104.00;;;-142.93;100.00
10840;BME280;5473;42.706;23.328;2023-01-25T01:26:50;62104.00;;;-142.93;100.00
10840;BME280;5473;42.706;23.328;2023-01-25T01:29:17;62104.00;;;-142.93;100.00
10840;BME280;5473;42.706;23.328;2023-01-25T01:31:43;62104.00;;;-142.93;100.00
10840;BME280;5473;42.706;23.328;2023-01-25T01:34:11;62104.00;;;-142.93;100.00
10840;BME280;5473;42.706;23.328;2023-01-25T01:36:38;62104.00;;;-142.93;100.00
10840;BME280;5473;42.706;23.328;2023-01-25T01:39:05;62104.00;;;-142.93;100.00
10840;BME280;5473;42.706;23.328;2023-01-25T01:41:32;62104.00;;;-142.93;100.00
10840;BME280;5473;42.706;23.328;2023-01-25T01:44:01;62104.00;;;-142.93;100.00
10840;BME280;5473;42.706;23.328;2023-01-25T01:46:32;62104.00;;;-142.93;100.00
10840;BME280;5473;42.706;23.328;2023-01-25T01:49:05;62104.00;;;-142.93;100.00
10840;BME280;5473;42.706;23.328;2023-01-25T01:51:43;62104.00;;;-142.93;100.00
10840;BME280;5473;42.706;23.328;2023-01-25T01:54:13;62104.00;;;-142.93;100.00
10840;BME280;5473;42.706;23.328;2023-01-25T01:56:49;62104.00;;;-142.93;100.00
10840;BME280;5473;42.706;23.328;2023-01-25T01:59:20;62104.00;;;-142.93;100.00
10840;BME280;5473;42.706;23.328;2023-01-25T02:01:49;62104.00;;;-142.93;100.00
10840;BME280;5473;42.706;23.328;2023-01-25T02:04:18;62104.00;;;-142.93;100.00
10840;BME280;5473;42.706;23.328;2023-01-25T02:06:49;62104.00;;;-142.93;100.00
10840;BME280;5473;42.706;23.328;2023-01-25T02:09:21;62104.00;;;-142.93;100.00
10840;BME280;5473;42.706;23.328;2023-01-25T02:11:50;62104.00;;;-142.93;100.00
10840;BME280;5473;42.706;23.328;2023-01-25T02:14:19;62104.00;;;-142.93;100.00
10840;BME280;5473;42.706;23.328;2023-01-25T02:16:46;62104.00;;;-142.93;100.00
10840;BME280;5473;42.706;23.328;2023-01-25T02:19:21;62104.00;;;-142.93;100.00
10840;BME280;5473;42.706;23.328;2023-01-25T02:21:51;62104.00;;;-142.93;100.00
10840;BME280;5473;42.706;23.328;2023-01-25T02:24:22;62104.00;;;-142.93;100.00
10840;BME280;5473;42.706;23.328;2023-01-25T02:26:54;62104.00;;;-142.93;100.00
10840;BME280;5473;42.706;23.328;2023-01-25T02:29:21;62104.00;;;-142.93;100.00
10840;BME280;5473;42.706;23.328;2023-01-25T02:31:48;62104.00;;;-142.93;100.00
10840;BME280;5473;42.706;23.328;2023-01-25T02:34:16;62104.00;;;-142.93;100.00
10840;BME280;5473;42.706;23.328;2023-01-25T02:36:43;62104.00;;;-142.93;100.00
10840;BME280;5473;42.706;23.328;2023-01-25T02:39:13;62104.00;;;-142.93;100.00
10840;BME280;5473;42.706;23.328;2023-01-25T02:41:44;62104.00;;;-142.93;100.00
10840;BME280;5473;42.706;23.328;2023-01-25T02:44:16;62104.00;;;-142.93;100.00
10840;BME280;5473;42.706;23.328;2023-01-25T02:46:45;62104.00;;;-142.93;100.00
10840;BME280;5473;42.706;23.328;2023-01-25T02:49:22;-14313.72;;;-142.93;100.00
10840;BME280;5473;42.706;23.328;2023-01-25T02:51:52;-14564.44;;;-142.93;100.00
10840;BME280;5473;42.706;23.328;2023-01-25T02:54:22;-14565.91;;;-142.93;100.00
10840;BME280;5473;42.706;23.328;2023-01-25T02:56:50;-14565.91;;;-142.93;100.00
10840;BME280;5473;42.706;23.328;2023-01-25T02:59:16;-14565.91;;;-142.93;100.00
10840;BME280;5473;42.706;23.328;2023-01-25T03:01:44;-14565.91;;;-142.93;100.00
10840;BME280;5473;42.706;23.328;2023-01-25T03:04:11;-14565.91;;;-142.93;100.00
10840;BME280;5473;42.706;23.328;2023-01-25T03:06:39;-14565.91;;;-142.93;100.00
10840;BME280;5473;42.706;23.328;2023-01-25T03:09:08;-14565.91;;;-142.93;100.00
10840;BME280;5473;42.706;23.328;2023-01-25T03:11:35;-14565.91;;;-142.93;100.00
10840;BME280;5473;42.706;23.328;2023-01-25T03:14:02;-14565.91;;;-142.93;100.00
10840;BME280;5473;42.706;23.328;2023-01-25T03:16:29;-14565.91;;;-142.93;100.00
10840;BME280;5473;42.706;23.328;2023-01-25T03:18:57;-14565.91;;;-142.93;100.00
10840;BME280;5473;42.706;23.328;2023-01-25T03:21:23;-14565.91;;;-142.93;100.00
10840;BME280;5473;42.706;23.328;2023-01-25T03:23:56;-14564.44;;;-142.93;100.00
10840;BME280;5473;42.706;23.328;2023-01-25T03:26:26;-14564.44;;;-142.93;100.00
10840;BME280;5473;42.706;23.328;2023-01-25T03:28:53;-14564.44;;;-142.93;100.00
10840;BME280;5473;42.706;23.328;2023-01-25T03:31:20;-14564.44;;;-142.93;100.00
10840;BME280;5473;42.706;23.328;2023-01-25T03:33:46;-14564.44;;;-142.93;100.00
10840;BME280;5473;42.706;23.328;2023-01-25T03:36:14;-14564.44;;;-142.93;100.00
10840;BME280;5473;42.706;23.328;2023-01-25T03:38:41;-14564.44;;;-142.93;100.00
10840;BME280;5473;42.706;23.328;2023-01-25T03:41:09;-14564.44;;;-142.93;100.00
10840;BME280;5473;42.706;23.328;2023-01-25T03:43:37;-14564.44;;;-142.93;100.00
10840;BME280;5473;42.706;23.328;2023-01-25T03:46:04;-14564.44;;;-142.93;100.00
10840;BME280;5473;42.706;23.328;2023-01-25T03:48:31;-14564.44;;;-142.93;100.00
10840;BME280;5473;42.706;23.328;2023-01-25T03:50:58;-14564.44;;;-142.93;100.00
10840;BME280;5473;42.706;23.328;2023-01-25T03:53:26;-14564.44;;;-142.93;100.00
10840;BME280;5473;42.706;23.328;2023-01-25T03:55:55;-14564.44;;;-142.93;100.00
10840;BME280;5473;42.706;23.328;2023-01-25T03:58:24;-14564.44;;;-142.93;100.00
10840;BME280;5473;42.706;23.328;2023-01-25T04:00:54;-14564.44;;;-142.93;100.00
10840;BME280;5473;42.706;23.328;2023-01-25T04:03:22;-14313.72;;;-142.93;100.00
10840;BME280;5473;42.706;23.328;2023-01-25T04:05:49;-14313.72;;;-142.93;100.00
10840;BME280;5473;42.706;23.328;2023-01-25T04:08:16;-14313.72;;;-142.93;100.00
10840;BME280;5473;42.706;23.328;2023-01-25T04:10:43;-14313.72;;;-142.93;100.00
10840;BME280;5473;42.706;23.328;2023-01-25T04:13:11;-14313.72;;;-142.93;100.00
10840;BME280;5473;42.706;23.328;2023-01-25T04:15:39;-14313.72;;;-142.93;100.00
10840;BME280;5473;42.706;23.328;2023-01-25T04:18:06;-14313.72;;;-142.93;100.00
10840;BME280;5473;42.706;23.328;2023-01-25T04:20:32;-14313.72;;;-142.93;100.00
10840;BME280;5473;42.706;23.328;2023-01-25T04:22:59;-14313.72;;;-142.93;100.00
10840;BME280;5473;42.706;23.328;2023-01-25T04:25:26;-14313.72;;;-142.93;100.00
10840;BME280;5473;42.706;23.328;2023-01-25T04:27:53;-14313.72;;;-142.93;100.00
10840;BME280;5473;42.706;23.328;2023-01-25T04:30:20;-14313.72;;;-142.93;100.00
10840;BME280;5473;42.706;23.328;2023-01-25T04:32:48;-14564.44;;;-142.93;100.00
10840;BME280;5473;42.706;23.328;2023-01-25T04:35:15;-14564.44;;;-142.93;100.00
10840;BME280;5473;42.706;23.328;2023-01-25T04:37:42;-14564.44;;;-142.93;100.00
10840;BME280;5473;42.706;23.328;2023-01-25T04:40:09;-14564.44;;;-142.93;100.00
10840;BME280;5473;42.706;23.328;2023-01-25T04:42:37;-14565.91;;;-142.93;100.00
10840;BME280;5473;42.706;23.328;2023-01-25T04:45:05;-14565.91;;;-142.93;100.00
10840;BME280;5473;42.706;23.328;2023-01-25T04:47:32;-14565.91;;;-142.93;100.00
10840;BME280;5473;42.706;23.328;2023-01-25T04:50:00;-14565.91;;;-142.93;100.00
10840;BME280;5473;42.706;23.328;2023-01-25T04:52:27;-14565.91;;;-142.93;100.00
10840;BME280;5473;42.706;23.328;2023-01-25T04:54:53;-14565.91;;;-142.93;100.00
10840;BME280;5473;42.706;23.328;2023-01-25T04:57:20;-14565.91;;;-142.93;100.00
10840;BME280;5473;42.706;23.328;2023-01-25T04:59:47;-14565.91;;;-142.93;100.00
10840;BME280;5473;42.706;23.328;2023-01-25T05:02:14;-14565.91;;;-142.93;100.00
10840;BME280;5473;42.706;23.328;2023-01-25T05:04:40;-14565.91;;;-142.93;100.00
10840;BME280;5473;42.706;23.328;2023-01-25T05:07:08;-14565.91;;;-142.93;100.00
10840;BME280;5473;42.706;23.328;2023-01-25T05:09:35;-14565.91;;;-142.93;100.00
10840;BME280;5473;42.706;23.328;2023-01-25T05:12:02;-14565.91;;;-142.93;100.00
10840;BME280;5473;42.706;23.328;2023-01-25T05:14:35;-14565.91;;;-142.93;100.00
10840;BME280;5473;42.706;23.328;2023-01-25T05:17:02;-14565.91;;;-142.93;100.00
10840;BME280;5473;42.706;23.328;2023-01-25T05:19:29;-14565.91;;;-142.93;100.00
10840;BME280;5473;42.706;23.328;2023-01-25T05:21:56;-14565.91;;;-142.93;100.00
10840;BME280;5473;42.706;23.328;2023-01-25T05:24:29;-14565.91;;;-142.93;100.00
10840;BME280;5473;42.706;23.328;2023-01-25T05:26:57;-14565.91;;;-142.93;100.00
10840;BME280;5473;42.706;23.328;2023-01-25T05:29:28;-14565.91;;;-142.93;100.00
10840;BME280;5473;42.706;23.328;2023-01-25T05:31:55;-14565.91;;;-142.93;100.00
10840;BME280;5473;42.706;23.328;2023-01-25T05:34:22;-14565.91;;;-142.93;100.00
10840;BME280;5473;42.706;23.328;2023-01-25T05:36:50;-14565.91;;;-142.93;100.00
10840;BME280;5473;42.706;23.328;2023-01-25T05:39:17;-14565.91;;;-142.93;100.00
10840;BME280;5473;42.706;23.328;2023-01-25T05:41:45;-14565.91;;;-142.93;100.00
10840;BME280;5473;42.706;23.328;2023-01-25T05:44:12;-14565.91;;;-142.93;100.00
10840;BME280;5473;42.706;23.328;2023-01-25T05:46:39;-14565.91;;;-142.93;100.00
10840;BME280;5473;42.706;23.328;2023-01-25T05:49:06;-14565.91;;;-142.93;100.00
10840;BME280;5473;42.706;23.328;2023-01-25T05:51:33;-14565.91;;;-142.93;100.00
10840;BME280;5473;42.706;23.328;2023-01-25T05:54:00;-14565.91;;;-142.93;100.00
10840;BME280;5473;42.706;23.328;2023-01-25T05:56:27;-14565.91;;;-142.93;100.00
10840;BME280;5473;42.706;23.328;2023-01-25T05:58:57;-14565.91;;;-142.93;100.00
10840;BME280;5473;42.706;23.328;2023-01-25T06:01:25;-14565.91;;;-142.93;100.00
10840;BME280;5473;42.706;23.328;2023-01-25T06:03:53;-14565.91;;;-142.93;100.00
10840;BME280;5473;42.706;23.328;2023-01-25T06:06:20;-14565.91;;;-142.93;100.00
10840;BME280;5473;42.706;23.328;2023-01-25T06:08:47;-14565.91;;;-142.93;100.00
10840;BME280;5473;42.706;23.328;2023-01-25T06:11:16;-14565.91;;;-142.93;100.00
10840;BME280;5473;42.706;23.328;2023-01-25T06:13:43;-14565.91;;;-142.93;100.00
10840;BME280;5473;42.706;23.328;2023-01-25T06:16:12;-14565.91;;;-142.93;100.00
10840;BME280;5473;42.706;23.328;2023-01-25T06:18:39;-14565.91;;;-142.93;100.00
10840;BME280;5473;42.706;23.328;2023-01-25T06:21:05;-14565.91;;;-142.93;100.00
10840;BME280;5473;42.706;23.328;2023-01-25T06:23:32;-14565.91;;;-142.93;100.00
10840;BME280;5473;42.706;23.328;2023-01-25T06:26:00;-14565.91;;;-142.93;100.00
10840;BME280;5473;42.706;23.328;2023-01-25T06:28:28;-14565.91;;;-142.93;100.00
10840;BME280;5473;42.706;23.328;2023-01-25T06:30:55;-14565.91;;;-142.93;100.00
10840;BME280;5473;42.706;23.328;2023-01-25T06:33:23;-14565.91;;;-142.93;100.00
10840;BME280;5473;42.706;23.328;2023-01-25T06:35:50;-14565.91;;;-142.93;100.00
10840;BME280;5473;42.706;23.328;2023-01-25T06:38:17;-14565.91;;;-142.93;100.00
10840;BME280;5473;42.706;23.328;2023-01-25T06:40:44;-14565.91;;;-142.93;100.00
10840;BME280;5473;42.706;23.328;2023-01-25T06:43:11;-14565.91;;;-142.93;100.00
10840;BME280;5473;42.706;23.328;2023-01-25T06:45:37;-14565.91;;;-142.93;100.00
10840;BME280;5473;42.706;23.328;2023-01-25T06:48:04;-14565.91;;;-142.93;100.00
10840;BME280;5473;42.706;23.328;2023-01-25T06:50:33;-14565.91;;;-142.93;100.00
10840;BME280;5473;42.706;23.328;2023-01-25T06:52:59;-14565.91;;;-142.93;100.00
10840;BME280;5473;42.706;23.328;2023-01-25T06:55:26;-14565.91;;;-142.93;100.00
10840;BME280;5473;42.706;23.328;2023-01-25T06:57:53;-14565.91;;;-142.93;100.00
10840;BME280;5473;42.706;23.328;2023-01-25T07:00:20;-14565.91;;;-142.93;100.00
10840;BME280;5473;42.706;23.328;2023-01-25T07:02:47;-14565.91;;;-142.93;100.00
10840;BME280;5473;42.706;23.328;2023-01-25T07:05:14;-14565.91;;;-142.93;100.00
10840;BME280;5473;42.706;23.328;2023-01-25T07:07:45;-14565.91;;;-142.93;100.00
10840;BME280;5473;42.706;23.328;2023-01-25T07:10:12;-14565.91;;;-142.93;100.00
10840;BME280;5473;42.706;23.328;2023-01-25T07:12:39;-14565.91;;;-142.93;100.00
10840;BME280;5473;42.706;23.328;2023-01-25T07:15:07;-14565.91;;;-142.93;100.00
10840;BME280;5473;42.706;23.328;2023-01-25T07:17:34;-14565.91;;;-142.93;100.00
10840;BME280;5473;42.706;23.328;2023-01-25T07:20:00;-14565.91;;;-142.93;100.00
10840;BME280;5473;42.706;23.328;2023-01-25T07:22:27;-14565.91;;;-142.93;100.00
10840;BME280;5473;42.706;23.328;2023-01-25T07:24:55;-14565.91;;;-142.93;100.00
10840;BME280;5473;42.706;23.328;2023-01-25T07:27:23;-14564.44;;;-142.93;100.00
10840;BME280;5473;42.706;23.328;2023-01-25T07:29:50;-14564.44;;;-142.93;100.00
10840;BME280;5473;42.706;23.328;2023-01-25T07:32:16;-14564.44;;;-142.93;100.00
10840;BME280;5473;42.706;23.328;2023-01-25T07:34:43;-14564.44;;;-142.93;100.00
10840;BME280;5473;42.706;23.328;2023-01-25T07:37:10;-14564.44;;;-142.93;100.00
10840;BME280;5473;42.706;23.328;2023-01-25T07:39:37;-14564.44;;;-142.93;100.00
10840;BME280;5473;42.706;23.328;2023-01-25T07:42:06;-14564.44;;;-142.93;100.00
10840;BME280;5473;42.706;23.328;2023-01-25T07:44:33;-14564.44;;;-142.93;100.00
10840;BME280;5473;42.706;23.328;2023-01-25T07:47:00;-14564.44;;;-142.93;100.00
10840;BME280;5473;42.706;23.328;2023-01-25T07:49:26;-14564.44;;;-142.93;100.00
10840;BME280;5473;42.706;23.328;2023-01-25T07:51:53;-14564.44;;;-142.93;100.00
10840;BME280;5473;42.706;23.328;2023-01-25T07:54:20;-14564.44;;;-142.93;100.00
10840;BME280;5473;42.706;23.328;2023-01-25T07:56:47;-14564.44;;;-142.93;100.00
10840;BME280;5473;42.706;23.328;2023-01-25T07:59:15;-14564.44;;;-142.93;100.00
10840;BME280;5473;42.706;23.328;2023-01-25T08:01:42;-14564.44;;;-142.93;100.00
10840;BME280;5473;42.706;23.328;2023-01-25T08:04:09;-14313.72;;;-142.93;100.00
10840;BME280;5473;42.706;23.328;2023-01-25T08:06:37;-14313.72;;;-142.93;100.00
10840;BME280;5473;42.706;23.328;2023-01-25T08:09:06;-14313.72;;;-142.93;100.00
10840;BME280;5473;42.706;23.328;2023-01-25T08:11:34;-14313.72;;;-142.93;100.00
10840;BME280;5473;42.706;23.328;2023-01-25T08:14:01;-14062.97;;;-142.93;100.00
10840;BME280;5473;42.706;23.328;2023-01-25T08:16:30;-14062.97;;;-142.93;100.00
10840;BME280;5473;42.706;23.328;2023-01-25T08:18:59;-14062.97;;;-142.93;100.00
10840;BME280;5473;42.706;23.328;2023-01-25T08:21:26;-14062.97;;;-142.93;100.00
10840;BME280;5473;42.706;23.328;2023-01-25T08:23:56;-14062.97;;;-142.93;100.00
10840;BME280;5473;42.706;23.328;2023-01-25T08:26:22;-14313.72;;;-142.93;100.00
10840;BME280;5473;42.706;23.328;2023-01-25T08:28:49;-14062.97;;;-142.93;100.00
10840;BME280;5473;42.706;23.328;2023-01-25T08:31:20;-14062.97;;;-142.93;100.00
10840;BME280;5473;42.706;23.328;2023-01-25T08:33:49;-14062.97;;;-142.93;100.00
10840;BME280;5473;42.706;23.328;2023-01-25T08:36:17;-14062.97;;;-142.93;100.00
10840;BME280;5473;42.706;23.328;2023-01-25T08:38:44;-13812.22;;;-142.93;100.00
10840;BME280;5473;42.706;23.328;2023-01-25T08:41:13;-13812.22;;;-142.93;100.00
10840;BME280;5473;42.706;23.328;2023-01-25T08:43:40;-13812.22;;;-142.93;100.00
10840;BME280;5473;42.706;23.328;2023-01-25T08:46:08;-13812.22;;;-142.93;100.00
10840;BME280;5473;42.706;23.328;2023-01-25T08:48:35;-13812.22;;;-142.93;100.00
10840;BME280;5473;42.706;23.328;2023-01-25T08:51:03;-13812.22;;;-142.93;100.00
10840;BME280;5473;42.706;23.328;2023-01-25T08:53:31;-13561.44;;;-142.93;100.00
10840;BME280;5473;42.706;23.328;2023-01-25T08:56:03;-13561.44;;;-142.93;100.00
10840;BME280;5473;42.706;23.328;2023-01-25T08:58:30;-13310.63;;;-142.93;100.00
10840;BME280;5473;42.706;23.328;2023-01-25T09:01:00;-13059.81;;;-142.93;100.00
10840;BME280;5473;42.706;23.328;2023-01-25T09:03:28;-13310.63;;;-142.93;100.00
10840;BME280;5473;42.706;23.328;2023-01-25T09:05:55;-13561.44;;;-142.93;100.00
10840;BME280;5473;42.706;23.328;2023-01-25T09:08:24;-13812.22;;;-142.93;100.00
10840;BME280;5473;42.706;23.328;2023-01-25T09:10:51;-13812.22;;;-142.93;100.00
10840;BME280;5473;42.706;23.328;2023-01-25T09:13:17;-13812.22;;;-142.93;100.00
10840;BME280;5473;42.706;23.328;2023-01-25T09:15:44;-13812.22;;;-142.93;100.00
10840;BME280;5473;42.706;23.328;2023-01-25T09:18:11;-13812.22;;;-142.93;100.00
10840;BME280;5473;42.706;23.328;2023-01-25T09:20:39;-14062.97;;;-142.93;100.00
10840;BME280;5473;42.706;23.328;2023-01-25T09:23:05;-14313.72;;;-142.93;100.00
10840;BME280;5473;42.706;23.328;2023-01-25T09:25:34;-14564.44;;;-142.93;100.00
10840;BME280;5473;42.706;23.328;2023-01-25T09:28:01;-14313.72;;;-142.93;100.00
10840;BME280;5473;42.706;23.328;2023-01-25T09:30:37;-14564.44;;;-142.93;100.00
10840;BME280;5473;42.706;23.328;2023-01-25T09:33:04;-14564.44;;;-142.93;100.00
10840;BME280;5473;42.706;23.328;2023-01-25T09:35:31;-14564.44;;;-142.93;100.00
10840;BME280;5473;42.706;23.328;2023-01-25T09:37:58;-14564.44;;;-142.93;100.00
10840;BME280;5473;42.706;23.328;2023-01-25T09:40:29;-14564.44;;;-142.93;100.00
10840;BME280;5473;42.706;23.328;2023-01-25T09:43:03;-14564.44;;;-142.93;100.00
10840;BME280;5473;42.706;23.328;2023-01-25T09:45:32;-14564.44;;;-142.93;100.00
10840;BME280;5473;42.706;23.328;2023-01-25T09:48:08;-14564.44;;;-142.93;100.00
10840;BME280;5473;42.706;23.328;2023-01-25T09:50:38;-14564.44;;;-142.93;100.00
10840;BME280;5473;42.706;23.328;2023-01-25T09:53:26;-14313.72;;;-142.93;100.00
10840;BME280;5473;42.706;23.328;2023-01-25T09:55:58;-14313.72;;;-142.93;100.00
10840;BME280;5473;42.706;23.328;2023-01-25T09:58:31;-14062.97;;;-142.93;100.00
10840;BME280;5473;42.706;23.328;2023-01-25T10:01:15;-13812.22;;;-142.93;100.00
10840;BME280;5473;42.706;23.328;2023-01-25T10:03:49;-13812.22;;;-142.93;100.00
10840;BME280;5473;42.706;23.328;2023-01-25T10:06:20;-13812.22;;;-142.93;100.00
10840;BME280;5473;42.706;23.328;2023-01-25T10:08:54;-13561.44;;;-142.93;100.00
10840;BME280;5473;42.706;23.328;2023-01-25T10:11:26;-13310.63;;;-142.93;100.00
10840;BME280;5473;42.706;23.328;2023-01-25T10:13:55;-13059.81;;;-142.93;100.00
10840;BME280;5473;42.706;23.328;2023-01-25T10:16:25;-12307.22;;;-142.93;100.00
10840;BME280;5473;42.706;23.328;2023-01-25T10:18:59;-11303.53;;;-142.93;100.00
10840;BME280;5473;42.706;23.328;2023-01-25T10:21:31;-10048.47;;;-142.93;100.00
10840;BME280;5473;42.706;23.328;2023-01-25T10:26:55;-8290.56;;;-142.93;100.00
10840;BME280;5473;42.706;23.328;2023-01-25T10:29:26;-7285.59;;;-142.93;100.00
10840;BME280;5473;42.706;23.328;2023-01-25T10:31:56;-7034.31;;;-142.93;100.00
10840;BME280;5473;42.706;23.328;2023-01-25T10:34:30;-6280.34;;;-142.93;100.00
10840;BME280;5473;42.706;23.328;2023-01-25T10:37:01;-5777.63;;;-142.93;100.00
10840;BME280;5473;42.706;23.328;2023-01-25T10:39:31;-6029.00;;;-142.93;100.00
10840;BME280;5473;42.706;23.328;2023-01-25T10:42:05;-6783.03;;;-142.93;100.00
10840;BME280;5473;42.706;23.328;2023-01-25T10:44:34;-7034.31;;;-142.93;100.00
10840;BME280;5473;42.706;23.328;2023-01-25T10:47:06;-6029.00;;;-142.93;100.00
10840;BME280;5473;42.706;23.328;2023-01-25T10:49:40;-5274.78;;;-142.93;100.00
10840;BME280;5473;42.706;23.328;2023-01-25T10:52:15;-5023.34;;;-142.93;100.00
10840;BME280;5473;42.706;23.328;2023-01-25T10:54:42;-3514.31;;;-142.93;100.00
10840;BME280;5473;42.706;23.328;2023-01-25T10:57:13;-3514.31;;;-142.93;100.00
10840;BME280;5473;42.706;23.328;2023-01-25T10:59:45;-3765.88;;;-142.93;100.00
10840;BME280;5473;42.706;23.328;2023-01-25T11:02:38;-3514.31;;;-142.93;100.00
10840;BME280;5473;42.706;23.328;2023-01-25T11:05:31;-3765.88;;;-142.93;100.00
10840;BME280;5473;42.706;23.328;2023-01-25T11:10:45;-3262.75;;;-142.93;100.00
10840;BME280;5473;42.706;23.328;2023-01-25T11:13:22;-3765.88;;;-142.93;100.00
10840;BME280;5473;42.706;23.328;2023-01-25T11:15:53;-4017.41;;;-142.93;100.00
10840;BME280;5473;42.706;23.328;2023-01-25T11:18:22;-3262.75;;;-142.93;100.00
10840;BME280;5473;42.706;23.328;2023-01-25T11:21:05;-2256.25;;;-142.93;100.00
10840;BME280;5473;42.706;23.328;2023-01-25T11:23:32;-3514.31;;;-142.93;100.00
10840;BME280;5473;42.706;23.328;2023-01-25T11:26:13;-2507.91;;;-142.93;100.00
10840;BME280;5473;42.706;23.328;2023-01-25T11:28:41;-2759.53;;;-142.93;100.00
10840;BME280;5473;42.706;23.328;2023-01-25T11:31:12;-2759.53;;;-142.93;100.00
10840;BME280;5473;42.706;23.328;2023-01-25T11:33:40;-2004.56;;;-142.93;100.00
10840;BME280;5473;42.706;23.328;2023-01-25T11:36:19;-2256.25;;;-142.93;100.00
10840;BME280;5473;42.706;23.328;2023-01-25T11:39:04;-3514.31;;;-142.93;100.00
10840;BME280;5473;42.706;23.328;2023-01-25T11:41:41;-4268.91;;;-142.93;100.00
10840;BME280;5473;42.706;23.328;2023-01-25T11:44:39;-4017.41;;;-142.93;100.00
10840;BME280;5473;42.706;23.328;2023-01-25T11:47:18;-4017.41;;;-142.93;100.00
10840;BME280;5473;42.706;23.328;2023-01-25T11:49:59;-3514.31;;;-142.93;100.00
10840;BME280;5473;42.706;23.328;2023-01-25T11:52:34;-4017.41;;;-142.93;100.00
10840;BME280;5473;42.706;23.328;2023-01-25T11:55:18;-4017.41;;;-142.93;100.00
10840;BME280;5473;42.706;23.328;2023-01-25T11:58:06;-4268.91;;;-142.93;100.00
10840;BME280;5473;42.706;23.328;2023-01-25T12:00:50;-4520.41;;;-142.93;100.00
10840;BME280;5473;42.706;23.328;2023-01-25T12:03:52;-3765.88;;;-142.93;100.00
10840;BME280;5473;42.706;23.328;2023-01-25T12:06:32;-4017.41;;;-142.93;100.00
10840;BME280;5473;42.706;23.328;2023-01-25T12:09:10;-3262.75;;;-142.93;100.00
10840;BME280;5473;42.706;23.328;2023-01-25T12:11:49;-997.69;;;-142.93;100.00
10840;BME280;5473;42.706;23.328;2023-01-25T12:14:27;-997.69;;;-142.93;100.00
10840;BME280;5473;42.706;23.328;2023-01-25T12:17:10;-2004.56;;;-142.93;100.00
10840;BME280;5473;42.706;23.328;2023-01-25T12:19:54;-1501.19;;;-142.93;100.00
10840;BME280;5473;42.706;23.328;2023-01-25T12:22:37;-2004.56;;;-142.93;100.00
10840;BME280;5473;42.706;23.328;2023-01-25T12:25:20;-2507.91;;;-142.93;100.00
10840;BME280;5473;42.706;23.328;2023-01-25T12:28:01;-2004.56;;;-142.93;100.00
10840;BME280;5473;42.706;23.328;2023-01-25T12:30:40;-2507.91;;;-142.93;100.00
10840;BME280;5473;42.706;23.328;2023-01-25T12:33:12;-3514.31;;;-142.93;100.00
10840;BME280;5473;42.706;23.328;2023-01-25T12:35:45;-3765.88;;;-142.93;100.00
10840;BME280;5473;42.706;23.328;2023-01-25T12:38:15;-4268.91;;;-142.93;100.00
10840;BME280;5473;42.706;23.328;2023-01-25T12:40:48;-4771.91;;;-142.93;100.00
10840;BME280;5473;42.706;23.328;2023-01-25T12:43:20;-4771.91;;;-142.93;100.00